Time;durP1;ratioP1;P1;durP2;ratioP2;P2;SDS_P1;SDS_P2;PMS_P1;PMS_P2;Temp;Humidity;BMP_temperature;BMP_pressure;BME280_temperature;BME280_humidity;BME280_pressure;Samples;Min_cycle;Max_cycle;Signal;HPM_P1;HPM_P2
2023/03/09 00:00:15;;;;;;;6.67;6.07;;;;;;;;;;1038531;28;20822;-57
2023/03/09 00:00:46;;;;;;;5.72;5.22;;;;;;;;;;1035335;28;20286;-57
2023/03/09 00:01:18;;;;;;;6.15;5.55;;;;;;;;;;1038828;28;20101;-57
2023/03/09 00:01:53;;;;;;;6.03;5.43;;;;;;;;;;1039189;28;20093;-57
2023/03/09 00:02:24;;;;;;;6.32;5.72;;;;;;;;;;1039030;28;20021;-57
2023/03/09 00:02:55;;;;;;;8.02;6.40;;;;;;;;;;1039023;28;20025;-57
2023/03/09 00:03:26;;;;;;;6.85;6.25;;;;;;;;;;1039166;28;20049;-57
2023/03/09 00:03:58;;;;;;;7.00;6.10;;;;;;;;;;1038961;28;20484;-57
2023/03/09 00:04:29;;;;;;;7.00;6.30;;;;;;;;;;1039064;28;20055;-57
2023/03/09 00:05:00;;;;;;;6.37;5.63;;;;;;;;;;1039138;28;20029;-57
2023/03/09 00:05:31;;;;;;;6.68;5.88;;;;;;;;;;1038814;28;20264;-56
2023/03/09 00:06:02;;;;;;;6.30;5.63;;;;;;;;;;1039297;28;20108;-56
2023/03/09 00:06:33;;;;;;;7.18;6.47;;;;;;;;;;1038789;28;20045;-56
2023/03/09 00:07:04;;;;;;;7.20;6.50;;;;;;;;;;1039156;28;20067;-57
2023/03/09 00:07:35;;;;;;;6.47;5.85;;;;;;;;;;1038801;28;20036;-57
2023/03/09 00:08:06;;;;;;;6.68;5.97;;;;;;;;;;1039319;28;20024;-57
2023/03/09 00:08:37;;;;;;;6.85;6.25;;;;;;;;;;1038710;28;20017;-56
2023/03/09 00:09:08;;;;;;;6.22;5.63;;;;;;;;;;1039007;28;20021;-56
2023/03/09 00:09:39;;;;;;;6.68;5.97;;;;;;;;;;1038409;28;20160;-57
2023/03/09 00:10:11;;;;;;;6.93;6.32;;;;;;;;;;1039328;28;20017;-56
2023/03/09 00:10:42;;;;;;;6.45;5.85;;;;;;;;;;1038700;28;20981;-57
2023/03/09 00:11:13;;;;;;;5.93;5.32;;;;;;;;;;1039176;28;20029;-56
2023/03/09 00:11:47;;;;;;;6.55;5.95;;;;;;;;;;1038884;28;20032;-57
2023/03/09 00:12:18;;;;;;;6.05;5.55;;;;;;;;;;1038921;28;20394;-56
2023/03/09 00:12:49;;;;;;;6.10;5.50;;;;;;;;;;1038786;28;20665;-57
2023/03/09 00:13:21;;;;;;;6.85;6.22;;;;;;;;;;1039167;28;20284;-57
2023/03/09 00:13:52;;;;;;;6.25;5.65;;;;;;;;;;1038717;28;20017;-57
2023/03/09 00:14:24;;;;;;;6.80;6.20;;;;;;;;;;1039174;28;20330;-57
2023/03/09 00:14:55;;;;;;;6.20;5.60;;;;;;;;;;1038831;28;20017;-57
2023/03/09 00:15:26;;;;;;;7.20;6.50;;;;;;;;;;1039325;28;20041;-57
2023/03/09 00:15:57;;;;;;;6.80;6.20;;;;;;;;;;1038401;28;20048;-57
2023/03/09 00:16:30;;;;;;;6.90;6.20;;;;;;;;;;1039196;28;20017;-57
2023/03/09 00:17:01;;;;;;;5.60;5.10;;;;;;;;;;1038946;28;20057;-56
2023/03/09 00:17:31;;;;;;;6.80;6.20;;;;;;;;;;1039016;28;20010;-57
2023/03/09 00:18:02;;;;;;;7.45;6.75;;;;;;;;;;1038928;28;20564;-56
2023/03/09 00:18:33;;;;;;;6.57;5.97;;;;;;;;;;1038869;28;20041;-57
2023/03/09 00:19:05;;;;;;;6.50;5.95;;;;;;;;;;1038712;28;20026;-57
2023/03/09 00:19:35;;;;;;;5.95;5.45;;;;;;;;;;1039204;28;20040;-57
2023/03/09 00:20:19;;;;;;;6.70;6.00;;;;;;;;;;1038876;28;20025;-56
2023/03/09 00:20:50;;;;;;;6.55;5.95;;;;;;;;;;1038370;28;20248;-57
2023/03/09 00:21:34;;;;;;;6.45;5.80;;;;;;;;;;1039107;28;20017;-57
2023/03/09 00:22:05;;;;;;;6.38;5.78;;;;;;;;;;1038809;28;20033;-57
2023/03/09 00:22:36;;;;;;;6.50;5.85;;;;;;;;;;1038770;28;20014;-57
2023/03/09 00:23:10;;;;;;;6.97;6.28;;;;;;;;;;1038894;28;20025;-56
2023/03/09 00:23:42;;;;;;;6.30;5.70;;;;;;;;;;1039328;28;20382;-57
2023/03/09 00:24:14;;;;;;;6.45;5.85;;;;;;;;;;1036077;28;20071;-57
2023/03/09 00:24:48;;;;;;;6.60;6.00;;;;;;;;;;1038889;28;20032;-56
2023/03/09 00:25:21;;;;;;;6.28;5.68;;;;;;;;;;1038416;28;20445;-56
2023/03/09 00:25:52;;;;;;;6.20;5.63;;;;;;;;;;1038685;28;20088;-57
2023/03/09 00:26:23;;;;;;;6.72;6.03;;;;;;;;;;1038844;28;20021;-57
2023/03/09 00:26:55;;;;;;;6.40;5.80;;;;;;;;;;1041796;28;20055;-57
2023/03/09 00:27:26;;;;;;;6.03;5.43;;;;;;;;;;1041796;28;20032;-56
2023/03/09 00:27:57;;;;;;;6.50;5.90;;;;;;;;;;1034926;28;20053;-57
2023/03/09 00:28:28;;;;;;;6.70;6.10;;;;;;;;;;1034389;28;20265;-57
2023/03/09 00:28:59;;;;;;;7.22;6.53;;;;;;;;;;1039093;28;20477;-56
2023/03/09 00:29:30;;;;;;;7.10;6.43;;;;;;;;;;1038656;28;20083;-57
2023/03/09 00:30:03;;;;;;;6.95;6.30;;;;;;;;;;1039326;28;20083;-57
2023/03/09 00:30:35;;;;;;;7.07;6.45;;;;;;;;;;1038343;28;20026;-57
2023/03/09 00:31:07;;;;;;;6.97;6.38;;;;;;;;;;1039057;28;20044;-57
2023/03/09 00:31:38;;;;;;;6.45;5.85;;;;;;;;;;1038677;28;20138;-57
2023/03/09 00:32:09;;;;;;;6.95;6.25;;;;;;;;;;1039170;28;20144;-57
2023/03/09 00:32:40;;;;;;;6.97;6.38;;;;;;;;;;1038498;28;20104;-57
2023/03/09 00:33:11;;;;;;;6.82;6.13;;;;;;;;;;1039015;28;20025;-56
2023/03/09 00:33:41;;;;;;;7.30;6.60;;;;;;;;;;1038881;28;20033;-57
2023/03/09 00:34:16;;;;;;;6.75;6.10;;;;;;;;;;1038845;28;20256;-56
2023/03/09 00:34:47;;;;;;;6.75;6.13;;;;;;;;;;1038808;28;20048;-57
2023/03/09 00:35:17;;;;;;;6.28;5.68;;;;;;;;;;1039096;28;20022;-57
2023/03/09 00:35:48;;;;;;;6.45;5.85;;;;;;;;;;1038887;28;20584;-56
2023/03/09 00:36:19;;;;;;;7.03;6.35;;;;;;;;;;1038903;28;20171;-57
2023/03/09 00:36:50;;;;;;;7.03;6.43;;;;;;;;;;1038790;28;20048;-56
2023/03/09 00:37:21;;;;;;;6.60;5.97;;;;;;;;;;1039284;28;20523;-56
2023/03/09 00:37:52;;;;;;;6.73;6.13;;;;;;;;;;1038569;28;20021;-57
2023/03/09 00:38:23;;;;;;;7.05;6.43;;;;;;;;;;1039065;28;20303;-56
2023/03/09 00:38:55;;;;;;;6.75;6.13;;;;;;;;;;1038669;28;20463;-57
2023/03/09 00:39:26;;;;;;;6.55;5.95;;;;;;;;;;1038664;28;20812;-57
2023/03/09 00:39:57;;;;;;;6.80;6.20;;;;;;;;;;1038331;28;20781;-57
2023/03/09 00:40:29;;;;;;;5.80;5.28;;;;;;;;;;1038628;28;20025;-56
2023/03/09 00:41:03;;;;;;;6.18;5.57;;;;;;;;;;1038162;28;20358;-56
2023/03/09 00:41:34;;;;;;;6.55;5.95;;;;;;;;;;1034958;28;20026;-57
2023/03/09 00:42:05;;;;;;;6.10;5.50;;;;;;;;;;1034723;28;20088;-57
2023/03/09 00:42:37;;;;;;;6.10;5.55;;;;;;;;;;1034840;28;20033;-56
2023/03/09 00:43:08;;;;;;;6.80;6.20;;;;;;;;;;1038364;28;20014;-57
2023/03/09 00:43:39;;;;;;;7.25;6.57;;;;;;;;;;1039041;28;20026;-57
2023/03/09 00:44:11;;;;;;;7.35;6.63;;;;;;;;;;1038974;28;20465;-56
2023/03/09 00:44:42;;;;;;;6.82;6.13;;;;;;;;;;1038962;28;20075;-56
2023/03/09 00:45:13;;;;;;;7.00;6.25;;;;;;;;;;1038514;28;20680;-56
2023/03/09 00:45:44;;;;;;;7.47;6.70;;;;;;;;;;1039107;28;20025;-56
2023/03/09 00:46:16;;;;;;;7.18;6.47;;;;;;;;;;1037123;28;20385;-57
2023/03/09 00:46:47;;;;;;;7.05;6.35;;;;;;;;;;1035040;28;20432;-57
2023/03/09 00:47:18;;;;;;;6.35;5.75;;;;;;;;;;1034730;28;20502;-57
2023/03/09 00:47:49;;;;;;;7.35;6.65;;;;;;;;;;1035104;28;20025;-57
2023/03/09 00:48:20;;;;;;;7.30;6.60;;;;;;;;;;1038877;28;20053;-56
2023/03/09 00:48:51;;;;;;;7.28;6.57;;;;;;;;;;1038880;28;20045;-57
2023/03/09 00:49:22;;;;;;;7.10;6.40;;;;;;;;;;1038512;28;20120;-57
2023/03/09 00:49:53;;;;;;;6.30;5.70;;;;;;;;;;1038453;28;20742;-57
2023/03/09 00:50:24;;;;;;;6.82;6.13;;;;;;;;;;1038509;28;20268;-57
2023/03/09 00:50:55;;;;;;;6.68;6.07;;;;;;;;;;1038198;28;20735;-56
2023/03/09 00:51:26;;;;;;;6.80;6.18;;;;;;;;;;1036942;28;20104;-57
2023/03/09 00:51:57;;;;;;;7.13;6.43;;;;;;;;;;1038812;28;20029;-56
2023/03/09 00:52:28;;;;;;;7.28;6.57;;;;;;;;;;1038933;28;20094;-57
2023/03/09 00:52:59;;;;;;;6.80;6.10;;;;;;;;;;1038685;28;20439;-56
2023/03/09 00:53:30;;;;;;;7.90;7.13;;;;;;;;;;1038909;28;20975;-56
2023/03/09 00:54:02;;;;;;;6.65;6.05;;;;;;;;;;1038993;28;20415;-57
2023/03/09 00:54:33;;;;;;;6.13;5.60;;;;;;;;;;1038864;28;20353;-57
2023/03/09 00:55:04;;;;;;;6.65;6.05;;;;;;;;;;1038734;28;20903;-56
2023/03/09 00:55:35;;;;;;;7.03;6.43;;;;;;;;;;1038869;28;20104;-56
2023/03/09 00:56:16;;;;;;;6.63;6.03;;;;;;;;;;1038815;28;20022;-56
2023/03/09 00:56:47;;;;;;;7.18;6.47;;;;;;;;;;1038299;28;20507;-57
2023/03/09 00:57:18;;;;;;;7.25;6.55;;;;;;;;;;1038612;28;20513;-56
2023/03/09 00:57:49;;;;;;;6.37;5.77;;;;;;;;;;1038464;28;20021;-56
2023/03/09 00:58:19;;;;;;;6.28;5.68;;;;;;;;;;1038375;28;20765;-57
2023/03/09 00:58:50;;;;;;;7.50;6.80;;;;;;;;;;1038720;28;20053;-57
2023/03/09 00:59:21;;;;;;;7.33;6.63;;;;;;;;;;1039083;28;20431;-57
2023/03/09 00:59:53;;;;;;;6.95;6.35;;;;;;;;;;1038363;28;20259;-57
2023/03/09 01:00:24;;;;;;;6.57;5.97;;;;;;;;;;1038963;28;20580;-57
2023/03/09 01:00:55;;;;;;;6.60;6.00;;;;;;;;;;1038536;28;20743;-56
2023/03/09 01:01:26;;;;;;;6.80;6.20;;;;;;;;;;1039030;28;20021;-57
2023/03/09 01:01:58;;;;;;;6.13;5.53;;;;;;;;;;1038581;28;20034;-56
2023/03/09 01:02:29;;;;;;;6.40;5.80;;;;;;;;;;1038882;28;20026;-56
2023/03/09 01:03:00;;;;;;;6.50;5.90;;;;;;;;;;1038848;28;20068;-56
2023/03/09 01:03:31;;;;;;;6.93;6.28;;;;;;;;;;1038929;28;20149;-57
2023/03/09 01:04:03;;;;;;;6.75;6.07;;;;;;;;;;1034712;28;20026;-56
2023/03/09 01:04:34;;;;;;;6.13;5.53;;;;;;;;;;1034292;28;20599;-57
2023/03/09 01:05:05;;;;;;;6.70;6.00;;;;;;;;;;1034501;28;20028;-57
2023/03/09 01:05:37;;;;;;;6.65;5.97;;;;;;;;;;1037024;28;20040;-57
2023/03/09 01:06:08;;;;;;;6.82;6.13;;;;;;;;;;1038091;28;20041;-57
2023/03/09 01:06:39;;;;;;;7.05;6.35;;;;;;;;;;1034199;28;20532;-57
2023/03/09 01:07:10;;;;;;;7.22;6.53;;;;;;;;;;1036040;28;20828;-57
2023/03/09 01:07:42;;;;;;;6.28;5.68;;;;;;;;;;1038537;28;20083;-57
2023/03/09 01:08:13;;;;;;;6.18;5.57;;;;;;;;;;1038252;28;20036;-57
2023/03/09 01:08:45;;;;;;;6.78;6.18;;;;;;;;;;1034766;28;20014;-56
2023/03/09 01:09:16;;;;;;;6.20;5.60;;;;;;;;;;1034728;28;20025;-57
2023/03/09 01:09:47;;;;;;;6.83;6.20;;;;;;;;;;1034909;28;20101;-56
2023/03/09 01:10:18;;;;;;;6.03;5.53;;;;;;;;;;1034725;28;20262;-57
2023/03/09 01:10:49;;;;;;;6.15;5.55;;;;;;;;;;1038213;28;20606;-56
2023/03/09 01:11:20;;;;;;;6.97;6.38;;;;;;;;;;1038938;28;20461;-57
2023/03/09 01:11:51;;;;;;;6.40;5.80;;;;;;;;;;1038736;28;20071;-57
2023/03/09 01:12:22;;;;;;;6.55;5.93;;;;;;;;;;1038827;28;20040;-56
2023/03/09 01:12:54;;;;;;;7.20;6.50;;;;;;;;;;1038789;28;20018;-56
2023/03/09 01:13:26;;;;;;;6.72;6.13;;;;;;;;;;1038995;28;20013;-57
2023/03/09 01:13:57;;;;;;;6.40;5.80;;;;;;;;;;1038640;28;20037;-56
2023/03/09 01:14:28;;;;;;;6.22;5.63;;;;;;;;;;1038845;28;20025;-56
2023/03/09 01:14:59;;;;;;;6.82;6.13;;;;;;;;;;1038435;28;20040;-56
2023/03/09 01:15:30;;;;;;;6.78;6.18;;;;;;;;;;1038023;28;20021;-56
2023/03/09 01:16:00;;;;;;;6.65;6.05;;;;;;;;;;1034422;28;20026;-56
2023/03/09 01:16:31;;;;;;;7.10;6.40;;;;;;;;;;1034629;28;20071;-56
2023/03/09 01:17:03;;;;;;;6.63;6.03;;;;;;;;;;1038218;28;20396;-57
2023/03/09 01:17:34;;;;;;;6.43;5.70;;;;;;;;;;1037842;28;20017;-57
2023/03/09 01:18:05;;;;;;;6.68;6.07;;;;;;;;;;1038861;28;20021;-56
2023/03/09 01:18:36;;;;;;;6.38;5.75;;;;;;;;;;1038747;28;20029;-56
2023/03/09 01:19:07;;;;;;;6.80;6.10;;;;;;;;;;1036595;28;20024;-56
2023/03/09 01:19:38;;;;;;;7.15;6.45;;;;;;;;;;1034845;28;20476;-57
2023/03/09 01:20:10;;;;;;;6.57;5.97;;;;;;;;;;1034597;28;20026;-56
2023/03/09 01:20:41;;;;;;;7.15;6.45;;;;;;;;;;1035153;28;20034;-56
2023/03/09 01:21:12;;;;;;;6.78;6.13;;;;;;;;;;1038200;28;20032;-56
2023/03/09 01:21:43;;;;;;;6.68;6.07;;;;;;;;;;1038652;28;20746;-57
2023/03/09 01:22:14;;;;;;;7.50;6.80;;;;;;;;;;1038426;28;20022;-57
2023/03/09 01:22:45;;;;;;;7.30;6.63;;;;;;;;;;1038634;28;20061;-56
2023/03/09 01:23:16;;;;;;;6.82;6.13;;;;;;;;;;1038749;28;20561;-56
2023/03/09 01:23:47;;;;;;;6.63;6.03;;;;;;;;;;1038932;28;20469;-57
2023/03/09 01:24:18;;;;;;;7.40;6.70;;;;;;;;;;1038401;28;20687;-57
2023/03/09 01:24:49;;;;;;;7.35;6.65;;;;;;;;;;1038719;28;20017;-57
2023/03/09 01:25:20;;;;;;;7.10;6.40;;;;;;;;;;1038512;28;20025;-57
2023/03/09 01:25:51;;;;;;;6.85;6.18;;;;;;;;;;1038690;28;20263;-56
2023/03/09 01:26:22;;;;;;;7.00;6.30;;;;;;;;;;1038686;28;20441;-56
2023/03/09 01:26:53;;;;;;;7.35;6.65;;;;;;;;;;1041405;28;20435;-57
2023/03/09 01:27:24;;;;;;;6.72;6.13;;;;;;;;;;1042624;28;20404;-57
2023/03/09 01:27:55;;;;;;;7.05;6.35;;;;;;;;;;1038767;28;20473;-57
2023/03/09 01:28:26;;;;;;;7.10;6.40;;;;;;;;;;1037527;28;20013;-56
2023/03/09 01:28:57;;;;;;;7.32;6.63;;;;;;;;;;1034706;28;20560;-56
2023/03/09 01:29:28;;;;;;;6.38;5.78;;;;;;;;;;1037835;28;20040;-57
2023/03/09 01:29:59;;;;;;;6.65;6.05;;;;;;;;;;1038609;28;20026;-57
2023/03/09 01:30:31;;;;;;;6.45;5.85;;;;;;;;;;1038645;28;20034;-57
2023/03/09 01:31:11;;;;;;;7.13;6.53;;;;;;;;;;1039028;28;20109;-56
2023/03/09 01:31:42;;;;;;;6.72;6.13;;;;;;;;;;1038816;28;20048;-57
2023/03/09 01:32:13;;;;;;;7.27;6.57;;;;;;;;;;1038791;28;20022;-57
2023/03/09 01:32:44;;;;;;;6.55;5.95;;;;;;;;;;1038465;28;20264;-56
2023/03/09 01:33:15;;;;;;;7.38;6.68;;;;;;;;;;1038809;28;20018;-56
2023/03/09 01:33:48;;;;;;;6.93;6.28;;;;;;;;;;1038776;28;20100;-57
2023/03/09 01:34:19;;;;;;;8.20;7.50;;;;;;;;;;1038606;28;20076;-57
2023/03/09 01:34:50;;;;;;;7.05;6.43;;;;;;;;;;1038692;28;20017;-56
2023/03/09 01:35:21;;;;;;;6.30;5.70;;;;;;;;;;1039082;28;20029;-56
2023/03/09 01:35:52;;;;;;;7.13;6.43;;;;;;;;;;1038546;28;20331;-57
2023/03/09 01:36:23;;;;;;;8.02;7.22;;;;;;;;;;1039126;28;20092;-56
2023/03/09 01:36:54;;;;;;;6.93;6.32;;;;;;;;;;1038465;28;20021;-56
2023/03/09 01:37:25;;;;;;;7.80;6.68;;;;;;;;;;1039057;28;20025;-56
2023/03/09 01:37:56;;;;;;;6.93;6.25;;;;;;;;;;1038197;28;20037;-56
2023/03/09 01:38:27;;;;;;;7.47;6.77;;;;;;;;;;1038816;28;20020;-56
2023/03/09 01:38:58;;;;;;;7.63;6.88;;;;;;;;;;1038497;28;20997;-56
2023/03/09 01:39:29;;;;;;;7.10;6.40;;;;;;;;;;1039093;28;20025;-56
2023/03/09 01:40:00;;;;;;;7.75;7.03;;;;;;;;;;1038540;28;20025;-56
2023/03/09 01:40:33;;;;;;;7.85;7.05;;;;;;;;;;1038822;28;20763;-56
2023/03/09 01:41:05;;;;;;;7.57;6.75;;;;;;;;;;1038556;28;20056;-56
2023/03/09 01:41:36;;;;;;;7.38;6.68;;;;;;;;;;1038951;28;20103;-56
2023/03/09 01:42:07;;;;;;;7.13;6.45;;;;;;;;;;1038626;28;20055;-56
2023/03/09 01:42:38;;;;;;;6.82;6.22;;;;;;;;;;1038905;28;20028;-56
2023/03/09 01:43:27;;;;;;;6.55;5.95;;;;;;;;;;1038410;28;20017;-57
2023/03/09 01:43:58;;;;;;;7.28;6.57;;;;;;;;;;1038219;28;20032;-56
2023/03/09 01:44:29;;;;;;;7.28;6.57;;;;;;;;;;1035432;28;20133;-56
2023/03/09 01:45:26;;;;;;;7.18;6.47;;;;;;;;;;1038679;28;20108;-57
2023/03/09 01:45:57;;;;;;;;;;;;;;;;;;1038401;28;20175;-56
2023/03/09 01:46:32;;;;;;;7.70;6.90;;;;;;;;;;1037179;28;19904;-56
2023/03/09 01:47:03;;;;;;;7.05;6.35;;;;;;;;;;1034715;28;20026;-57
2023/03/09 01:47:34;;;;;;;7.45;6.75;;;;;;;;;;1034549;28;20060;-57
2023/03/09 01:48:07;;;;;;;7.38;6.68;;;;;;;;;;1038496;28;20086;-56
2023/03/09 01:48:38;;;;;;;6.93;6.22;;;;;;;;;;1038676;28;20568;-57
2023/03/09 01:49:19;;;;;;;7.35;6.65;;;;;;;;;;1038644;28;20044;-56
2023/03/09 01:49:50;;;;;;;7.47;6.78;;;;;;;;;;1036023;28;20022;-57
2023/03/09 01:50:23;;;;;;;6.80;6.18;;;;;;;;;;1034541;28;20022;-56
2023/03/09 01:50:54;;;;;;;7.30;6.60;;;;;;;;;;1034650;28;20039;-56
2023/03/09 01:51:27;;;;;;;7.38;6.68;;;;;;;;;;1036401;28;20061;-56
2023/03/09 01:52:01;;;;;;;7.22;6.55;;;;;;;;;;1038690;28;20087;-57
2023/03/09 01:52:33;;;;;;;7.35;6.65;;;;;;;;;;1038511;28;20017;-57
2023/03/09 01:53:11;;;;;;;7.70;6.90;;;;;;;;;;1038855;28;20083;-56
2023/03/09 01:53:42;;;;;;;7.05;6.40;;;;;;;;;;1038710;28;20048;-57
2023/03/09 01:54:16;;;;;;;7.35;6.65;;;;;;;;;;1038849;28;20116;-56
2023/03/09 01:54:53;;;;;;;6.80;6.20;;;;;;;;;;1038674;28;20053;-56
2023/03/09 01:55:29;;;;;;;7.13;6.43;;;;;;;;;;1038915;28;20123;-57
2023/03/09 01:56:01;;;;;;;7.68;6.88;;;;;;;;;;1038673;28;20029;-56
2023/03/09 01:56:34;;;;;;;7.90;7.10;;;;;;;;;;1038468;28;20117;-56
2023/03/09 01:57:08;;;;;;;7.60;6.82;;;;;;;;;;1038678;28;20127;-56
2023/03/09 01:57:51;;;;;;;7.78;6.97;;;;;;;;;;1038754;28;20549;-56
2023/03/09 01:58:25;;;;;;;7.88;7.07;;;;;;;;;;1038572;28;20021;-57
2023/03/09 01:58:57;;;;;;;7.47;6.78;;;;;;;;;;1038511;28;20029;-56
2023/03/09 01:59:28;;;;;;;7.03;6.32;;;;;;;;;;1038942;28;20025;-56
2023/03/09 02:00:05;;;;;;;6.88;6.18;;;;;;;;;;1038208;28;20112;-56
2023/03/09 02:00:36;;;;;;;7.57;6.88;;;;;;;;;;1035144;28;20026;-56
2023/03/09 02:01:07;;;;;;;7.80;7.00;;;;;;;;;;1034482;28;20092;-56
2023/03/09 02:01:40;;;;;;;7.68;6.88;;;;;;;;;;1034790;28;20389;-56
2023/03/09 02:02:11;;;;;;;7.82;7.00;;;;;;;;;;1034304;28;20385;-56
2023/03/09 02:02:44;;;;;;;7.43;6.72;;;;;;;;;;1034836;28;20026;-56
2023/03/09 02:03:17;;;;;;;7.32;6.63;;;;;;;;;;1034518;28;20026;-56
2023/03/09 02:03:50;;;;;;;7.55;6.85;;;;;;;;;;1034680;28;20022;-57
2023/03/09 02:04:27;;;;;;;8.15;7.35;;;;;;;;;;1034316;28;20038;-56
2023/03/09 02:05:00;;;;;;;7.22;6.53;;;;;;;;;;1034672;28;20408;-56
2023/03/09 02:05:49;;;;;;;7.68;6.88;;;;;;;;;;1036771;28;20022;-56
2023/03/09 02:06:21;;;;;;;7.75;6.95;;;;;;;;;;1038464;28;20087;-56
2023/03/09 02:06:52;;;;;;;8.27;7.15;;;;;;;;;;1038846;28;20052;-57
2023/03/09 02:07:25;;;;;;;6.97;6.38;;;;;;;;;;1038485;28;20112;-56
2023/03/09 02:07:57;;;;;;;7.78;7.05;;;;;;;;;;1038670;28;20425;-56
2023/03/09 02:08:29;;;;;;;7.75;6.95;;;;;;;;;;1038596;28;20673;-56
2023/03/09 02:09:05;;;;;;;7.30;6.60;;;;;;;;;;1038479;28;20022;-56
2023/03/09 02:09:39;;;;;;;7.88;7.15;;;;;;;;;;1038718;28;20020;-57
2023/03/09 02:10:22;;;;;;;7.35;6.65;;;;;;;;;;1038674;28;20381;-56
2023/03/09 02:10:56;;;;;;;7.53;6.80;;;;;;;;;;1038838;28;20018;-56
2023/03/09 02:11:27;;;;;;;7.40;6.70;;;;;;;;;;1038715;28;20475;-56
2023/03/09 02:11:59;;;;;;;7.93;7.15;;;;;;;;;;1038761;28;20045;-57
2023/03/09 02:12:30;;;;;;;7.43;6.63;;;;;;;;;;1038506;28;20572;-57
2023/03/09 02:13:03;;;;;;;8.13;7.32;;;;;;;;;;1038895;28;20028;-57
2023/03/09 02:13:36;;;;;;;7.82;7.03;;;;;;;;;;1038669;28;20471;-56
2023/03/09 02:14:08;;;;;;;7.80;7.10;;;;;;;;;;1038754;28;20026;-56
2023/03/09 02:14:39;;;;;;;7.95;7.25;;;;;;;;;;1038084;28;20068;-56
2023/03/09 02:15:10;;;;;;;7.82;7.00;;;;;;;;;;1038861;28;20024;-57
2023/03/09 02:15:41;;;;;;;7.25;6.55;;;;;;;;;;1038624;28;20021;-56
2023/03/09 02:16:13;;;;;;;7.15;6.45;;;;;;;;;;1038556;28;20025;-57
2023/03/09 02:16:44;;;;;;;7.93;7.13;;;;;;;;;;1038438;28;20474;-56
2023/03/09 02:17:16;;;;;;;7.43;6.72;;;;;;;;;;1038570;28;20489;-57
2023/03/09 02:17:48;;;;;;;8.60;7.80;;;;;;;;;;1038566;28;20100;-56
2023/03/09 02:18:19;;;;;;;9.15;7.45;;;;;;;;;;1038682;28;20131;-56
2023/03/09 02:18:50;;;;;;;7.43;6.72;;;;;;;;;;1038540;28;20052;-57
2023/03/09 02:19:31;;;;;;;7.55;6.85;;;;;;;;;;1038739;28;20053;-57
2023/03/09 02:20:05;;;;;;;7.95;7.15;;;;;;;;;;1038594;28;20607;-57
2023/03/09 02:20:36;;;;;;;7.28;6.53;;;;;;;;;;1038000;28;20444;-56
2023/03/09 02:21:25;;;;;;;7.43;6.73;;;;;;;;;;1037237;28;20472;-56
2023/03/09 02:21:56;;;;;;;8.25;7.45;;;;;;;;;;1037391;28;21009;-56
2023/03/09 02:22:27;;;;;;;7.90;7.15;;;;;;;;;;1038556;28;21508;-56
2023/03/09 02:22:58;;;;;;;7.70;7.00;;;;;;;;;;1038374;28;20759;-56
2023/03/09 02:23:34;;;;;;;7.25;6.55;;;;;;;;;;1038961;28;20018;-56
2023/03/09 02:24:08;;;;;;;7.35;6.65;;;;;;;;;;1038534;28;20599;-57
2023/03/09 02:24:49;;;;;;;7.07;6.38;;;;;;;;;;1035988;28;20385;-56
2023/03/09 02:25:20;;;;;;;7.82;7.03;;;;;;;;;;1036558;28;20686;-57
2023/03/09 02:25:58;;;;;;;7.70;7.00;;;;;;;;;;1038292;28;20769;-57
2023/03/09 02:26:29;;;;;;;7.60;6.90;;;;;;;;;;1034144;28;20022;-56
2023/03/09 02:27:03;;;;;;;7.30;6.60;;;;;;;;;;1040657;28;20017;-56
2023/03/09 02:27:34;;;;;;;7.15;6.50;;;;;;;;;;1038486;28;20316;-56
2023/03/09 02:28:06;;;;;;;7.55;6.85;;;;;;;;;;1038584;28;20461;-56
2023/03/09 02:28:37;;;;;;;8.65;7.85;;;;;;;;;;1035774;28;20021;-56
2023/03/09 02:29:08;;;;;;;7.88;7.07;;;;;;;;;;1038408;28;20052;-56
2023/03/09 02:29:39;;;;;;;7.93;7.13;;;;;;;;;;1038353;28;20029;-56
2023/03/09 02:30:10;;;;;;;7.82;7.10;;;;;;;;;;1038484;28;20034;-56
2023/03/09 02:30:43;;;;;;;7.60;6.90;;;;;;;;;;1038476;28;20030;-57
2023/03/09 02:31:14;;;;;;;8.32;7.47;;;;;;;;;;1038465;28;20017;-56
2023/03/09 02:31:45;;;;;;;7.40;6.70;;;;;;;;;;1038661;28;20103;-56
2023/03/09 02:32:17;;;;;;;7.55;6.85;;;;;;;;;;1038485;28;20135;-57
2023/03/09 02:32:47;;;;;;;8.07;7.28;;;;;;;;;;1038683;28;20129;-56
2023/03/09 02:33:26;;;;;;;7.07;6.38;;;;;;;;;;1039214;28;20032;-56
2023/03/09 02:33:57;;;;;;;8.02;7.25;;;;;;;;;;1039237;28;20049;-56
2023/03/09 02:34:28;;;;;;;8.05;7.25;;;;;;;;;;1039389;28;20036;-57
2023/03/09 02:34:59;;;;;;;7.82;7.13;;;;;;;;;;1039463;28;20025;-56
2023/03/09 02:35:30;;;;;;;7.78;6.95;;;;;;;;;;1035428;28;20033;-56
2023/03/09 02:36:02;;;;;;;8.40;7.60;;;;;;;;;;1035451;28;20026;-56
2023/03/09 02:36:33;;;;;;;7.82;7.13;;;;;;;;;;1035263;28;20371;-57
2023/03/09 02:37:04;;;;;;;8.65;7.05;;;;;;;;;;1038129;28;20492;-57
2023/03/09 02:37:37;;;;;;;7.50;6.78;;;;;;;;;;1039448;28;20033;-57
2023/03/09 02:38:13;;;;;;;8.10;7.30;;;;;;;;;;1039397;28;20041;-56
2023/03/09 02:38:44;;;;;;;8.25;7.50;;;;;;;;;;1039137;28;20033;-57
2023/03/09 02:39:15;;;;;;;7.35;6.65;;;;;;;;;;1039413;28;20052;-57
2023/03/09 02:39:48;;;;;;;8.83;8.03;;;;;;;;;;1039404;28;20029;-57
2023/03/09 02:40:26;;;;;;;8.02;7.22;;;;;;;;;;1038995;28;20279;-56
2023/03/09 02:41:00;;;;;;;7.60;6.90;;;;;;;;;;1039099;28;20037;-56
2023/03/09 02:41:31;;;;;;;8.00;7.25;;;;;;;;;;1039513;28;20193;-56
2023/03/09 02:42:03;;;;;;;9.88;7.88;;;;;;;;;;1038969;28;20044;-56
2023/03/09 02:42:34;;;;;;;7.78;7.07;;;;;;;;;;1039324;28;20161;-56
2023/03/09 02:43:05;;;;;;;8.48;7.65;;;;;;;;;;1039188;28;20082;-56
2023/03/09 02:43:37;;;;;;;8.15;7.35;;;;;;;;;;1039357;28;20029;-56
2023/03/09 02:44:08;;;;;;;7.85;7.15;;;;;;;;;;1036449;28;20960;-57
2023/03/09 02:44:39;;;;;;;8.05;7.25;;;;;;;;;;1035223;28;20034;-57
2023/03/09 02:45:11;;;;;;;8.45;7.65;;;;;;;;;;1035107;28;20037;-57
2023/03/09 02:45:42;;;;;;;8.73;7.88;;;;;;;;;;1039289;28;20040;-56
2023/03/09 02:46:13;;;;;;;8.20;7.45;;;;;;;;;;1038947;28;20095;-56
2023/03/09 02:46:44;;;;;;;8.25;7.45;;;;;;;;;;1039503;28;20029;-57
2023/03/09 02:47:18;;;;;;;7.95;7.18;;;;;;;;;;1038962;28;20104;-56
2023/03/09 02:47:49;;;;;;;8.15;7.35;;;;;;;;;;1037900;28;20206;-56
2023/03/09 02:48:20;;;;;;;8.10;7.38;;;;;;;;;;1034989;28;20101;-56
2023/03/09 02:48:51;;;;;;;7.57;6.88;;;;;;;;;;1037573;28;20022;-56
2023/03/09 02:49:22;;;;;;;7.60;6.90;;;;;;;;;;1039267;28;20130;-56
2023/03/09 02:49:53;;;;;;;8.88;7.97;;;;;;;;;;1039104;28;20464;-56
2023/03/09 02:50:24;;;;;;;7.65;6.95;;;;;;;;;;1038808;28;20024;-56
2023/03/09 02:50:55;;;;;;;9.15;8.32;;;;;;;;;;1038933;28;20480;-56
2023/03/09 02:51:26;;;;;;;7.78;7.07;;;;;;;;;;1038396;28;20699;-57
2023/03/09 02:51:57;;;;;;;8.32;7.63;;;;;;;;;;1035089;28;20040;-56
2023/03/09 02:52:28;;;;;;;8.68;7.82;;;;;;;;;;1038566;28;20155;-56
2023/03/09 02:53:00;;;;;;;7.77;7.07;;;;;;;;;;1039370;28;20069;-56
2023/03/09 02:53:31;;;;;;;6.57;5.97;;;;;;;;;;1039085;28;20848;-56
2023/03/09 02:54:02;;;;;;;8.20;7.40;;;;;;;;;;1039599;28;20530;-56
2023/03/09 02:54:33;;;;;;;7.97;7.18;;;;;;;;;;1038975;28;20026;-56
2023/03/09 02:55:04;;;;;;;7.18;6.47;;;;;;;;;;1039542;28;20144;-57
2023/03/09 02:55:35;;;;;;;8.60;7.80;;;;;;;;;;1038861;28;20026;-57
2023/03/09 02:56:07;;;;;;;8.30;7.50;;;;;;;;;;1039614;28;20021;-56
2023/03/09 02:56:38;;;;;;;9.07;8.18;;;;;;;;;;1038967;28;20033;-56
2023/03/09 02:57:09;;;;;;;9.40;8.60;;;;;;;;;;1039412;28;20021;-57
2023/03/09 02:57:41;;;;;;;7.50;6.80;;;;;;;;;;1039232;28;20036;-57
2023/03/09 02:58:12;;;;;;;7.75;7.03;;;;;;;;;;1039650;28;20028;-56
2023/03/09 02:58:43;;;;;;;8.45;7.65;;;;;;;;;;1039205;28;20032;-57
2023/03/09 02:59:14;;;;;;;7.30;6.60;;;;;;;;;;1036459;28;20468;-57
2023/03/09 02:59:45;;;;;;;8.05;7.35;;;;;;;;;;1035241;28;20018;-57
2023/03/09 03:00:16;;;;;;;8.73;7.88;;;;;;;;;;1035205;28;20453;-57
2023/03/09 03:00:47;;;;;;;8.38;7.57;;;;;;;;;;1036559;28;20057;-56
2023/03/09 03:01:18;;;;;;;7.72;7.03;;;;;;;;;;1039356;28;20082;-57
2023/03/09 03:01:49;;;;;;;8.10;7.30;;;;;;;;;;1039384;28;20021;-56
2023/03/09 03:02:20;;;;;;;8.32;7.53;;;;;;;;;;1039183;28;20444;-56
2023/03/09 03:02:51;;;;;;;8.05;7.30;;;;;;;;;;1039075;28;20029;-57
2023/03/09 03:03:22;;;;;;;8.35;7.55;;;;;;;;;;1039214;28;20117;-56
2023/03/09 03:03:53;;;;;;;8.23;7.43;;;;;;;;;;1039237;28;20531;-56
2023/03/09 03:04:24;;;;;;;7.88;7.18;;;;;;;;;;1039072;28;20047;-56
2023/03/09 03:04:55;;;;;;;7.90;6.93;;;;;;;;;;1039187;28;20098;-56
2023/03/09 03:05:26;;;;;;;8.43;7.63;;;;;;;;;;1039358;28;20644;-56
2023/03/09 03:05:58;;;;;;;8.05;7.25;;;;;;;;;;1039135;28;20554;-56
2023/03/09 03:06:29;;;;;;;8.55;7.65;;;;;;;;;;1039210;28;20388;-56
2023/03/09 03:07:00;;;;;;;7.68;6.88;;;;;;;;;;1039309;28;20489;-56
2023/03/09 03:07:31;;;;;;;8.15;7.35;;;;;;;;;;1039207;28;20053;-56
2023/03/09 03:08:02;;;;;;;8.02;7.22;;;;;;;;;;1039304;28;20362;-56
2023/03/09 03:08:35;;;;;;;7.65;6.95;;;;;;;;;;1039042;28;20434;-56
2023/03/09 03:09:06;;;;;;;6.90;6.20;;;;;;;;;;1039332;28;20459;-56
2023/03/09 03:09:37;;;;;;;8.75;7.85;;;;;;;;;;1035174;28;20029;-57
2023/03/09 03:10:08;;;;;;;7.47;6.78;;;;;;;;;;1035256;28;20351;-56
2023/03/09 03:10:39;;;;;;;7.60;6.80;;;;;;;;;;1034933;28;20018;-56
2023/03/09 03:11:10;;;;;;;7.90;7.10;;;;;;;;;;1038120;28;20812;-57
2023/03/09 03:11:41;;;;;;;7.33;6.63;;;;;;;;;;1039206;28;20453;-57
2023/03/09 03:12:12;;;;;;;8.07;7.28;;;;;;;;;;1039255;28;20287;-57